sensor_id;sensor_type;location;lat;lon;timestamp;temperature;humidity
44823;DHT22;51097;51.984;5.650;2022-09-24T00:01:30;18.10;99.90
44823;DHT22;51097;51.984;5.650;2022-09-24T00:04:01;18.10;99.90
44823;DHT22;51097;51.984;5.650;2022-09-24T00:06:29;18.10;99.90
44823;DHT22;51097;51.984;5.650;2022-09-24T00:08:56;18.10;99.90
44823;DHT22;51097;51.984;5.650;2022-09-24T00:11:24;18.10;99.90
44823;DHT22;51097;51.984;5.650;2022-09-24T00:13:51;18.00;99.90
44823;DHT22;51097;51.984;5.650;2022-09-24T00:16:20;18.00;99.90
44823;DHT22;51097;51.984;5.650;2022-09-24T00:18:46;18.00;99.90
44823;DHT22;51097;51.984;5.650;2022-09-24T00:21:24;18.10;99.90
44823;DHT22;51097;51.984;5.650;2022-09-24T00:23:52;18.10;99.90
44823;DHT22;51097;51.984;5.650;2022-09-24T00:26:19;18.10;99.90
44823;DHT22;51097;51.984;5.650;2022-09-24T00:29:04;18.00;99.90
44823;DHT22;51097;51.984;5.650;2022-09-24T00:31:30;18.00;99.90
44823;DHT22;51097;51.984;5.650;2022-09-24T00:33:57;18.00;99.90
44823;DHT22;51097;51.984;5.650;2022-09-24T00:36:23;18.10;99.90
44823;DHT22;51097;51.984;5.650;2022-09-24T00:38:53;18.10;99.90
44823;DHT22;51097;51.984;5.650;2022-09-24T00:41:21;18.00;99.90
44823;DHT22;51097;51.984;5.650;2022-09-24T00:43:47;17.90;99.90
44823;DHT22;51097;51.984;5.650;2022-09-24T00:46:31;18.00;99.90
44823;DHT22;51097;51.984;5.650;2022-09-24T00:49:00;17.90;99.90
44823;DHT22;51097;51.984;5.650;2022-09-24T00:51:28;18.00;99.90
44823;DHT22;51097;51.984;5.650;2022-09-24T00:54:03;17.90;99.90
44823;DHT22;51097;51.984;5.650;2022-09-24T00:56:31;17.90;99.90
44823;DHT22;51097;51.984;5.650;2022-09-24T00:58:59;17.90;99.90
44823;DHT22;51097;51.984;5.650;2022-09-24T01:01:27;18.00;99.90
44823;DHT22;51097;51.984;5.650;2022-09-24T01:03:55;17.90;99.90
44823;DHT22;51097;51.984;5.650;2022-09-24T01:06:22;18.00;99.90
44823;DHT22;51097;51.984;5.650;2022-09-24T01:08:47;17.90;99.90
44823;DHT22;51097;51.984;5.650;2022-09-24T01:11:40;17.90;99.90
44823;DHT22;51097;51.984;5.650;2022-09-24T01:30:22;17.80;99.90
44823;DHT22;51097;51.984;5.650;2022-09-24T01:33:00;17.90;99.90
44823;DHT22;51097;51.984;5.650;2022-09-24T01:35:48;17.80;99.90
44823;DHT22;51097;51.984;5.650;2022-09-24T01:38:21;17.80;99.90
44823;DHT22;51097;51.984;5.650;2022-09-24T01:40:49;17.90;99.90
44823;DHT22;51097;51.984;5.650;2022-09-24T01:43:19;17.80;99.90
44823;DHT22;51097;51.984;5.650;2022-09-24T01:45:46;17.80;99.90
44823;DHT22;51097;51.984;5.650;2022-09-24T01:48:12;17.80;99.90
44823;DHT22;51097;51.984;5.650;2022-09-24T01:50:45;17.70;99.90
44823;DHT22;51097;51.984;5.650;2022-09-24T01:53:20;17.70;99.90
44823;DHT22;51097;51.984;5.650;2022-09-24T01:55:56;17.80;99.90
44823;DHT22;51097;51.984;5.650;2022-09-24T01:58:28;17.80;99.90
44823;DHT22;51097;51.984;5.650;2022-09-24T02:01:02;17.80;99.90
44823;DHT22;51097;51.984;5.650;2022-09-24T02:03:33;17.70;99.90
44823;DHT22;51097;51.984;5.650;2022-09-24T02:06:24;17.80;99.90
44823;DHT22;51097;51.984;5.650;2022-09-24T02:08:50;17.70;99.90
44823;DHT22;51097;51.984;5.650;2022-09-24T02:11:20;17.70;99.90
44823;DHT22;51097;51.984;5.650;2022-09-24T02:14:01;17.70;99.90
44823;DHT22;51097;51.984;5.650;2022-09-24T02:16:48;17.70;99.90
44823;DHT22;51097;51.984;5.650;2022-09-24T02:19:23;17.80;99.90
44823;DHT22;51097;51.984;5.650;2022-09-24T02:21:51;17.80;99.90
44823;DHT22;51097;51.984;5.650;2022-09-24T02:24:23;17.60;99.90
44823;DHT22;51097;51.984;5.650;2022-09-24T02:26:51;17.60;99.90
44823;DHT22;51097;51.984;5.650;2022-09-24T02:29:16;17.60;99.90
44823;DHT22;51097;51.984;5.650;2022-09-24T02:31:47;17.60;99.90
44823;DHT22;51097;51.984;5.650;2022-09-24T02:34:19;17.50;99.90
44823;DHT22;51097;51.984;5.650;2022-09-24T02:36:52;17.60;99.90
44823;DHT22;51097;51.984;5.650;2022-09-24T02:39:19;17.60;99.90
44823;DHT22;51097;51.984;5.650;2022-09-24T02:41:45;17.60;99.90
44823;DHT22;51097;51.984;5.650;2022-09-24T02:44:16;17.70;99.90
44823;DHT22;51097;51.984;5.650;2022-09-24T02:46:43;17.70;99.90
44823;DHT22;51097;51.984;5.650;2022-09-24T02:49:09;17.60;99.90
44823;DHT22;51097;51.984;5.650;2022-09-24T02:51:35;17.60;99.90
44823;DHT22;51097;51.984;5.650;2022-09-24T02:54:01;17.60;99.90
44823;DHT22;51097;51.984;5.650;2022-09-24T02:56:28;17.50;99.90
44823;DHT22;51097;51.984;5.650;2022-09-24T02:58:54;17.50;99.90
44823;DHT22;51097;51.984;5.650;2022-09-24T03:01:19;17.50;99.90
44823;DHT22;51097;51.984;5.650;2022-09-24T03:03:45;17.40;99.90
44823;DHT22;51097;51.984;5.650;2022-09-24T03:06:12;17.40;99.90
44823;DHT22;51097;51.984;5.650;2022-09-24T03:08:39;17.30;99.90
44823;DHT22;51097;51.984;5.650;2022-09-24T03:11:07;17.50;99.90
44823;DHT22;51097;51.984;5.650;2022-09-24T03:13:32;17.70;99.90
44823;DHT22;51097;51.984;5.650;2022-09-24T03:15:58;17.50;99.90
44823;DHT22;51097;51.984;5.650;2022-09-24T03:18:24;17.70;99.90
44823;DHT22;51097;51.984;5.650;2022-09-24T03:20:57;17.50;99.90
44823;DHT22;51097;51.984;5.650;2022-09-24T03:23:23;17.60;99.90
44823;DHT22;51097;51.984;5.650;2022-09-24T03:25:48;17.50;99.90
44823;DHT22;51097;51.984;5.650;2022-09-24T03:28:14;17.50;99.90
44823;DHT22;51097;51.984;5.650;2022-09-24T03:30:40;17.50;99.90
44823;DHT22;51097;51.984;5.650;2022-09-24T03:33:41;17.50;99.90
44823;DHT22;51097;51.984;5.650;2022-09-24T03:36:16;17.50;99.90
44823;DHT22;51097;51.984;5.650;2022-09-24T03:38:44;17.60;99.90
44823;DHT22;51097;51.984;5.650;2022-09-24T03:41:11;17.50;99.90
44823;DHT22;51097;51.984;5.650;2022-09-24T03:43:37;17.40;99.90
44823;DHT22;51097;51.984;5.650;2022-09-24T03:46:03;17.40;99.90
44823;DHT22;51097;51.984;5.650;2022-09-24T03:48:32;17.50;99.90
44823;DHT22;51097;51.984;5.650;2022-09-24T03:51:03;17.40;99.90
44823;DHT22;51097;51.984;5.650;2022-09-24T03:53:28;17.40;99.90
44823;DHT22;51097;51.984;5.650;2022-09-24T03:55:55;17.40;99.90
44823;DHT22;51097;51.984;5.650;2022-09-24T03:58:22;17.30;99.90
44823;DHT22;51097;51.984;5.650;2022-09-24T04:00:50;17.50;99.90
44823;DHT22;51097;51.984;5.650;2022-09-24T04:03:16;17.40;99.90
44823;DHT22;51097;51.984;5.650;2022-09-24T04:05:42;17.30;99.90
44823;DHT22;51097;51.984;5.650;2022-09-24T04:08:08;17.40;99.90
44823;DHT22;51097;51.984;5.650;2022-09-24T04:10:34;17.40;99.90
44823;DHT22;51097;51.984;5.650;2022-09-24T04:12:59;17.30;99.90
44823;DHT22;51097;51.984;5.650;2022-09-24T04:15:25;17.30;99.90
44823;DHT22;51097;51.984;5.650;2022-09-24T04:17:57;17.30;99.90
44823;DHT22;51097;51.984;5.650;2022-09-24T04:20:25;17.50;99.90
44823;DHT22;51097;51.984;5.650;2022-09-24T04:22:53;17.40;99.90
44823;DHT22;51097;51.984;5.650;2022-09-24T04:25:19;17.40;99.90
44823;DHT22;51097;51.984;5.650;2022-09-24T04:27:45;17.40;99.90
44823;DHT22;51097;51.984;5.650;2022-09-24T04:30:14;17.40;99.90
44823;DHT22;51097;51.984;5.650;2022-09-24T04:32:40;17.40;99.90
44823;DHT22;51097;51.984;5.650;2022-09-24T04:35:06;17.40;99.90
44823;DHT22;51097;51.984;5.650;2022-09-24T04:37:32;17.40;99.90
44823;DHT22;51097;51.984;5.650;2022-09-24T04:39:58;17.40;99.90
44823;DHT22;51097;51.984;5.650;2022-09-24T04:42:24;17.30;99.90
44823;DHT22;51097;51.984;5.650;2022-09-24T04:44:49;17.40;99.90
44823;DHT22;51097;51.984;5.650;2022-09-24T04:47:15;17.40;99.90
44823;DHT22;51097;51.984;5.650;2022-09-24T04:49:41;17.50;99.90
44823;DHT22;51097;51.984;5.650;2022-09-24T04:52:13;17.40;99.90
44823;DHT22;51097;51.984;5.650;2022-09-24T04:54:40;17.40;99.90
44823;DHT22;51097;51.984;5.650;2022-09-24T04:57:13;17.30;99.90
44823;DHT22;51097;51.984;5.650;2022-09-24T04:59:39;17.40;99.90
44823;DHT22;51097;51.984;5.650;2022-09-24T05:02:04;17.50;99.90
44823;DHT22;51097;51.984;5.650;2022-09-24T05:04:34;17.40;99.90
44823;DHT22;51097;51.984;5.650;2022-09-24T05:06:59;17.40;99.90
44823;DHT22;51097;51.984;5.650;2022-09-24T05:09:25;17.40;99.90
44823;DHT22;51097;51.984;5.650;2022-09-24T05:11:50;17.40;99.90
44823;DHT22;51097;51.984;5.650;2022-09-24T05:14:16;17.40;99.90
44823;DHT22;51097;51.984;5.650;2022-09-24T05:16:42;17.40;99.90
44823;DHT22;51097;51.984;5.650;2022-09-24T05:19:07;17.40;99.90
44823;DHT22;51097;51.984;5.650;2022-09-24T05:21:33;17.50;99.90
44823;DHT22;51097;51.984;5.650;2022-09-24T05:23:58;17.40;99.90
44823;DHT22;51097;51.984;5.650;2022-09-24T05:26:24;17.40;99.90
44823;DHT22;51097;51.984;5.650;2022-09-24T05:29:08;17.40;99.90
44823;DHT22;51097;51.984;5.650;2022-09-24T05:31:33;17.40;99.90
44823;DHT22;51097;51.984;5.650;2022-09-24T05:33:59;17.30;99.90
44823;DHT22;51097;51.984;5.650;2022-09-24T05:36:25;17.30;99.90
44823;DHT22;51097;51.984;5.650;2022-09-24T05:38:52;17.30;99.90
44823;DHT22;51097;51.984;5.650;2022-09-24T05:41:17;17.40;99.90
44823;DHT22;51097;51.984;5.650;2022-09-24T05:43:43;17.30;99.90
44823;DHT22;51097;51.984;5.650;2022-09-24T05:46:09;17.50;99.90
44823;DHT22;51097;51.984;5.650;2022-09-24T05:48:34;17.40;99.90
44823;DHT22;51097;51.984;5.650;2022-09-24T05:51:00;17.40;99.90
44823;DHT22;51097;51.984;5.650;2022-09-24T05:53:26;17.40;99.90
44823;DHT22;51097;51.984;5.650;2022-09-24T05:55:52;17.40;99.90
44823;DHT22;51097;51.984;5.650;2022-09-24T05:58:18;17.30;99.90
44823;DHT22;51097;51.984;5.650;2022-09-24T06:00:43;17.40;99.90
44823;DHT22;51097;51.984;5.650;2022-09-24T06:03:12;17.40;99.90
44823;DHT22;51097;51.984;5.650;2022-09-24T06:05:38;17.50;99.90
44823;DHT22;51097;51.984;5.650;2022-09-24T06:08:04;17.40;99.90
44823;DHT22;51097;51.984;5.650;2022-09-24T06:10:31;17.50;99.90
44823;DHT22;51097;51.984;5.650;2022-09-24T06:12:56;17.50;99.90
44823;DHT22;51097;51.984;5.650;2022-09-24T06:15:23;17.40;99.90
44823;DHT22;51097;51.984;5.650;2022-09-24T06:17:53;17.50;99.90
44823;DHT22;51097;51.984;5.650;2022-09-24T06:20:19;17.40;99.90
44823;DHT22;51097;51.984;5.650;2022-09-24T06:22:45;17.50;99.90
44823;DHT22;51097;51.984;5.650;2022-09-24T06:25:10;17.50;99.90
44823;DHT22;51097;51.984;5.650;2022-09-24T06:27:36;17.40;99.90
44823;DHT22;51097;51.984;5.650;2022-09-24T06:30:02;17.40;99.90
44823;DHT22;51097;51.984;5.650;2022-09-24T06:32:29;17.40;99.90
44823;DHT22;51097;51.984;5.650;2022-09-24T06:34:54;17.50;99.90
44823;DHT22;51097;51.984;5.650;2022-09-24T06:37:20;17.50;99.90
44823;DHT22;51097;51.984;5.650;2022-09-24T06:39:46;17.50;99.90
44823;DHT22;51097;51.984;5.650;2022-09-24T06:42:12;17.50;99.90
44823;DHT22;51097;51.984;5.650;2022-09-24T06:44:38;17.50;99.90
44823;DHT22;51097;51.984;5.650;2022-09-24T06:47:03;17.50;99.90
44823;DHT22;51097;51.984;5.650;2022-09-24T06:49:29;17.50;99.90
44823;DHT22;51097;51.984;5.650;2022-09-24T06:51:55;17.50;99.90
44823;DHT22;51097;51.984;5.650;2022-09-24T06:54:21;17.50;99.90
44823;DHT22;51097;51.984;5.650;2022-09-24T06:56:47;17.60;99.90
44823;DHT22;51097;51.984;5.650;2022-09-24T06:59:13;17.50;99.90
44823;DHT22;51097;51.984;5.650;2022-09-24T07:01:39;17.50;99.90
44823;DHT22;51097;51.984;5.650;2022-09-24T07:04:04;17.50;99.90
44823;DHT22;51097;51.984;5.650;2022-09-24T07:06:30;17.50;99.90
44823;DHT22;51097;51.984;5.650;2022-09-24T07:09:18;17.60;99.90
44823;DHT22;51097;51.984;5.650;2022-09-24T07:11:43;17.60;99.90
44823;DHT22;51097;51.984;5.650;2022-09-24T07:14:12;17.60;99.90
44823;DHT22;51097;51.984;5.650;2022-09-24T07:16:38;17.70;99.90
44823;DHT22;51097;51.984;5.650;2022-09-24T07:19:04;17.60;99.90
44823;DHT22;51097;51.984;5.650;2022-09-24T07:21:29;17.60;99.90
44823;DHT22;51097;51.984;5.650;2022-09-24T07:23:55;17.60;99.90
44823;DHT22;51097;51.984;5.650;2022-09-24T07:26:21;17.60;99.90
44823;DHT22;51097;51.984;5.650;2022-09-24T07:28:46;17.70;99.90
44823;DHT22;51097;51.984;5.650;2022-09-24T07:31:12;17.70;99.90
44823;DHT22;51097;51.984;5.650;2022-09-24T07:33:37;17.70;99.90
44823;DHT22;51097;51.984;5.650;2022-09-24T07:36:06;17.70;99.90
44823;DHT22;51097;51.984;5.650;2022-09-24T07:38:32;17.80;99.90
44823;DHT22;51097;51.984;5.650;2022-09-24T07:41:00;17.90;99.90
44823;DHT22;51097;51.984;5.650;2022-09-24T07:43:28;17.90;99.90
44823;DHT22;51097;51.984;5.650;2022-09-24T07:45:53;17.90;99.90
44823;DHT22;51097;51.984;5.650;2022-09-24T07:48:20;17.90;99.90
44823;DHT22;51097;51.984;5.650;2022-09-24T07:50:46;17.80;99.90
44823;DHT22;51097;51.984;5.650;2022-09-24T07:53:12;17.80;99.90
44823;DHT22;51097;51.984;5.650;2022-09-24T07:55:39;17.80;99.90
44823;DHT22;51097;51.984;5.650;2022-09-24T07:58:12;17.80;99.90
44823;DHT22;51097;51.984;5.650;2022-09-24T08:00:39;17.90;99.90
44823;DHT22;51097;51.984;5.650;2022-09-24T08:03:05;17.90;99.90
44823;DHT22;51097;51.984;5.650;2022-09-24T08:05:31;17.90;99.90
44823;DHT22;51097;51.984;5.650;2022-09-24T08:07:57;17.90;99.90
44823;DHT22;51097;51.984;5.650;2022-09-24T08:10:25;17.90;99.90
44823;DHT22;51097;51.984;5.650;2022-09-24T08:12:51;17.90;99.90
44823;DHT22;51097;51.984;5.650;2022-09-24T08:15:18;17.90;99.90
44823;DHT22;51097;51.984;5.650;2022-09-24T08:17:44;17.90;99.90
44823;DHT22;51097;51.984;5.650;2022-09-24T08:20:10;18.00;99.90
44823;DHT22;51097;51.984;5.650;2022-09-24T08:22:36;18.00;99.90
44823;DHT22;51097;51.984;5.650;2022-09-24T08:25:03;17.90;99.90
44823;DHT22;51097;51.984;5.650;2022-09-24T08:27:29;18.10;99.90
44823;DHT22;51097;51.984;5.650;2022-09-24T08:29:57;18.00;99.90
44823;DHT22;51097;51.984;5.650;2022-09-24T08:32:25;17.90;99.90
44823;DHT22;51097;51.984;5.650;2022-09-24T08:34:50;18.00;99.90
44823;DHT22;51097;51.984;5.650;2022-09-24T08:37:16;18.00;99.90
44823;DHT22;51097;51.984;5.650;2022-09-24T08:39:42;18.00;99.90
44823;DHT22;51097;51.984;5.650;2022-09-24T08:42:18;18.00;99.90
44823;DHT22;51097;51.984;5.650;2022-09-24T08:44:48;18.00;99.90
44823;DHT22;51097;51.984;5.650;2022-09-24T08:47:38;18.00;99.90
44823;DHT22;51097;51.984;5.650;2022-09-24T08:55:27;18.10;99.90
44823;DHT22;51097;51.984;5.650;2022-09-24T09:00:40;18.10;99.90
44823;DHT22;51097;51.984;5.650;2022-09-24T09:06:04;18.20;99.90
44823;DHT22;51097;51.984;5.650;2022-09-24T09:08:54;18.30;99.90
44823;DHT22;51097;51.984;5.650;2022-09-24T09:11:28;18.20;99.90
44823;DHT22;51097;51.984;5.650;2022-09-24T09:14:03;18.10;99.90
44823;DHT22;51097;51.984;5.650;2022-09-24T09:16:44;18.20;99.90
44823;DHT22;51097;51.984;5.650;2022-09-24T09:19:13;18.20;99.90
44823;DHT22;51097;51.984;5.650;2022-09-24T09:21:42;18.20;99.90
44823;DHT22;51097;51.984;5.650;2022-09-24T09:24:30;18.20;99.90
44823;DHT22;51097;51.984;5.650;2022-09-24T09:27:00;18.30;99.90
44823;DHT22;51097;51.984;5.650;2022-09-24T09:29:26;18.20;99.90
44823;DHT22;51097;51.984;5.650;2022-09-24T09:37:24;18.30;99.90
44823;DHT22;51097;51.984;5.650;2022-09-24T09:40:03;18.30;99.90
44823;DHT22;51097;51.984;5.650;2022-09-24T09:42:35;18.30;99.90
44823;DHT22;51097;51.984;5.650;2022-09-24T09:45:17;18.30;99.90
44823;DHT22;51097;51.984;5.650;2022-09-24T09:47:49;18.30;99.90
44823;DHT22;51097;51.984;5.650;2022-09-24T09:50:40;18.20;99.90
44823;DHT22;51097;51.984;5.650;2022-09-24T09:53:22;18.20;99.90
44823;DHT22;51097;51.984;5.650;2022-09-24T09:58:31;18.30;99.90
44823;DHT22;51097;51.984;5.650;2022-09-24T10:06:11;18.20;99.90
44823;DHT22;51097;51.984;5.650;2022-09-24T10:08:37;18.30;99.90
44823;DHT22;51097;51.984;5.650;2022-09-24T10:11:02;18.30;99.90
44823;DHT22;51097;51.984;5.650;2022-09-24T10:13:29;18.30;99.90
44823;DHT22;51097;51.984;5.650;2022-09-24T10:16:04;18.30;99.90
44823;DHT22;51097;51.984;5.650;2022-09-24T10:18:44;18.40;99.90
44823;DHT22;51097;51.984;5.650;2022-09-24T10:21:34;18.30;99.90
44823;DHT22;51097;51.984;5.650;2022-09-24T10:24:00;18.30;99.90
44823;DHT22;51097;51.984;5.650;2022-09-24T10:26:35;18.40;99.90
44823;DHT22;51097;51.984;5.650;2022-09-24T10:29:01;18.40;99.90
44823;DHT22;51097;51.984;5.650;2022-09-24T10:31:46;18.30;99.90
44823;DHT22;51097;51.984;5.650;2022-09-24T10:34:32;18.40;99.90
44823;DHT22;51097;51.984;5.650;2022-09-24T10:37:00;18.50;99.90
44823;DHT22;51097;51.984;5.650;2022-09-24T10:39:26;18.40;99.90
44823;DHT22;51097;51.984;5.650;2022-09-24T10:41:54;18.50;99.90
44823;DHT22;51097;51.984;5.650;2022-09-24T10:44:21;18.50;99.90
44823;DHT22;51097;51.984;5.650;2022-09-24T10:55:31;18.70;99.90
44823;DHT22;51097;51.984;5.650;2022-09-24T10:58:15;18.70;99.90
44823;DHT22;51097;51.984;5.650;2022-09-24T11:09:26;18.70;99.90
44823;DHT22;51097;51.984;5.650;2022-09-24T11:15:02;18.60;99.90
44823;DHT22;51097;51.984;5.650;2022-09-24T11:20:35;18.80;99.90
44823;DHT22;51097;51.984;5.650;2022-09-24T11:25:44;18.80;99.90
44823;DHT22;51097;51.984;5.650;2022-09-24T11:28:24;18.80;99.90
44823;DHT22;51097;51.984;5.650;2022-09-24T11:31:11;18.80;99.90
44823;DHT22;51097;51.984;5.650;2022-09-24T11:33:47;18.90;99.90
44823;DHT22;51097;51.984;5.650;2022-09-24T11:39:41;18.90;99.90
44823;DHT22;51097;51.984;5.650;2022-09-24T11:42:24;18.90;99.90
44823;DHT22;51097;51.984;5.650;2022-09-24T11:50:58;18.90;99.90
44823;DHT22;51097;51.984;5.650;2022-09-24T11:53:56;19.00;99.90
44823;DHT22;51097;51.984;5.650;2022-09-24T11:56:39;18.90;99.90
44823;DHT22;51097;51.984;5.650;2022-09-24T11:59:21;19.00;99.90
44823;DHT22;51097;51.984;5.650;2022-09-24T12:02:04;19.00;99.90
44823;DHT22;51097;51.984;5.650;2022-09-24T12:07:48;19.00;99.90
44823;DHT22;51097;51.984;5.650;2022-09-24T12:13:22;19.10;99.90
44823;DHT22;51097;51.984;5.650;2022-09-24T12:15:55;19.10;99.90
44823;DHT22;51097;51.984;5.650;2022-09-24T12:18:34;19.00;99.90
44823;DHT22;51097;51.984;5.650;2022-09-24T12:21:14;19.00;99.90
44823;DHT22;51097;51.984;5.650;2022-09-24T12:23:43;19.10;99.90
44823;DHT22;51097;51.984;5.650;2022-09-24T12:26:13;19.00;99.90
44823;DHT22;51097;51.984;5.650;2022-09-24T12:28:59;19.00;99.90
44823;DHT22;51097;51.984;5.650;2022-09-24T12:32:03;19.00;99.90
44823;DHT22;51097;51.984;5.650;2022-09-24T12:34:57;19.10;99.90
44823;DHT22;51097;51.984;5.650;2022-09-24T12:37:30;19.10;99.90
44823;DHT22;51097;51.984;5.650;2022-09-24T12:42:41;19.20;99.90
44823;DHT22;51097;51.984;5.650;2022-09-24T12:45:19;19.10;99.90
44823;DHT22;51097;51.984;5.650;2022-09-24T12:47:58;19.10;99.90
44823;DHT22;51097;51.984;5.650;2022-09-24T12:50:29;19.10;99.90
44823;DHT22;51097;51.984;5.650;2022-09-24T12:52:55;19.10;99.90
44823;DHT22;51097;51.984;5.650;2022-09-24T12:55:23;19.20;99.90
44823;DHT22;51097;51.984;5.650;2022-09-24T13:00:38;19.10;99.90
44823;DHT22;51097;51.984;5.650;2022-09-24T13:03:23;19.10;99.90
44823;DHT22;51097;51.984;5.650;2022-09-24T13:05:51;18.90;99.90
44823;DHT22;51097;51.984;5.650;2022-09-24T13:13:27;18.90;99.90
44823;DHT22;51097;51.984;5.650;2022-09-24T13:16:17;18.80;99.90
44823;DHT22;51097;51.984;5.650;2022-09-24T13:18:54;18.90;99.90
44823;DHT22;51097;51.984;5.650;2022-09-24T13:21:24;18.90;99.90
44823;DHT22;51097;51.984;5.650;2022-09-24T13:23:50;18.90;99.90
44823;DHT22;51097;51.984;5.650;2022-09-24T13:31:26;18.90;99.90
44823;DHT22;51097;51.984;5.650;2022-09-24T13:39:41;19.00;99.90
44823;DHT22;51097;51.984;5.650;2022-09-24T13:44:48;19.00;99.90
44823;DHT22;51097;51.984;5.650;2022-09-24T13:49:51;19.10;99.90
44823;DHT22;51097;51.984;5.650;2022-09-24T13:52:27;19.10;99.90
44823;DHT22;51097;51.984;5.650;2022-09-24T13:54:56;19.20;99.90
44823;DHT22;51097;51.984;5.650;2022-09-24T13:57:27;19.10;99.90
44823;DHT22;51097;51.984;5.650;2022-09-24T14:00:23;19.10;99.90
44823;DHT22;51097;51.984;5.650;2022-09-24T14:05:23;19.10;99.90
44823;DHT22;51097;51.984;5.650;2022-09-24T14:08:06;19.20;99.90
44823;DHT22;51097;51.984;5.650;2022-09-24T14:10:34;19.20;99.90
44823;DHT22;51097;51.984;5.650;2022-09-24T14:13:21;19.10;99.90
44823;DHT22;51097;51.984;5.650;2022-09-24T14:18:21;19.30;99.90
44823;DHT22;51097;51.984;5.650;2022-09-24T14:23:48;19.40;99.90
44823;DHT22;51097;51.984;5.650;2022-09-24T14:29:04;19.30;99.90
44823;DHT22;51097;51.984;5.650;2022-09-24T14:31:30;19.30;99.90
44823;DHT22;51097;51.984;5.650;2022-09-24T14:33:58;19.30;99.90
44823;DHT22;51097;51.984;5.650;2022-09-24T14:36:26;19.40;99.90
44823;DHT22;51097;51.984;5.650;2022-09-24T14:41:24;19.40;99.90
44823;DHT22;51097;51.984;5.650;2022-09-24T14:48:50;19.50;99.90
44823;DHT22;51097;51.984;5.650;2022-09-24T14:51:29;19.50;99.90
44823;DHT22;51097;51.984;5.650;2022-09-24T14:54:26;19.50;99.90
44823;DHT22;51097;51.984;5.650;2022-09-24T14:56:53;19.50;99.90
44823;DHT22;51097;51.984;5.650;2022-09-24T14:59:36;19.50;99.90
44823;DHT22;51097;51.984;5.650;2022-09-24T15:02:21;19.50;99.90
44823;DHT22;51097;51.984;5.650;2022-09-24T15:04:51;19.60;99.90
44823;DHT22;51097;51.984;5.650;2022-09-24T15:07:25;19.50;99.90
44823;DHT22;51097;51.984;5.650;2022-09-24T15:09:58;19.60;99.90
44823;DHT22;51097;51.984;5.650;2022-09-24T15:12:27;19.60;99.90
44823;DHT22;51097;51.984;5.650;2022-09-24T15:15:04;19.60;99.90
44823;DHT22;51097;51.984;5.650;2022-09-24T15:17:35;19.60;99.90
44823;DHT22;51097;51.984;5.650;2022-09-24T15:20:02;19.60;99.90
44823;DHT22;51097;51.984;5.650;2022-09-24T15:22:29;19.60;99.90
44823;DHT22;51097;51.984;5.650;2022-09-24T15:24:57;19.60;99.90
44823;DHT22;51097;51.984;5.650;2022-09-24T15:29:52;19.50;99.90
44823;DHT22;51097;51.984;5.650;2022-09-24T15:32:24;19.30;99.90
44823;DHT22;51097;51.984;5.650;2022-09-24T15:34:51;19.20;99.90
44823;DHT22;51097;51.984;5.650;2022-09-24T15:37:20;19.20;99.90
44823;DHT22;51097;51.984;5.650;2022-09-24T15:39:47;19.20;99.90
44823;DHT22;51097;51.984;5.650;2022-09-24T15:42:24;19.20;99.90
44823;DHT22;51097;51.984;5.650;2022-09-24T15:44:50;19.20;99.90
44823;DHT22;51097;51.984;5.650;2022-09-24T15:47:17;19.30;99.90
44823;DHT22;51097;51.984;5.650;2022-09-24T15:49:43;19.30;99.90
44823;DHT22;51097;51.984;5.650;2022-09-24T15:52:19;19.20;99.90
44823;DHT22;51097;51.984;5.650;2022-09-24T15:54:56;19.20;99.90
44823;DHT22;51097;51.984;5.650;2022-09-24T15:57:22;19.10;99.90
44823;DHT22;51097;51.984;5.650;2022-09-24T15:59:49;19.10;99.90
44823;DHT22;51097;51.984;5.650;2022-09-24T16:02:17;19.20;99.90
44823;DHT22;51097;51.984;5.650;2022-09-24T16:04:45;19.20;99.90
44823;DHT22;51097;51.984;5.650;2022-09-24T16:07:10;19.10;99.90
44823;DHT22;51097;51.984;5.650;2022-09-24T16:09:36;19.20;99.90
44823;DHT22;51097;51.984;5.650;2022-09-24T16:12:02;19.20;99.90
44823;DHT22;51097;51.984;5.650;2022-09-24T16:14:27;19.10;99.90
44823;DHT22;51097;51.984;5.650;2022-09-24T16:16:53;19.20;99.90
44823;DHT22;51097;51.984;5.650;2022-09-24T16:19:20;19.20;99.90
44823;DHT22;51097;51.984;5.650;2022-09-24T16:21:46;19.20;99.90
44823;DHT22;51097;51.984;5.650;2022-09-24T16:24:11;19.20;99.90
44823;DHT22;51097;51.984;5.650;2022-09-24T16:26:37;19.10;99.90
44823;DHT22;51097;51.984;5.650;2022-09-24T16:29:04;19.10;99.90
44823;DHT22;51097;51.984;5.650;2022-09-24T16:31:30;19.10;99.90
44823;DHT22;51097;51.984;5.650;2022-09-24T16:33:55;19.10;99.90
44823;DHT22;51097;51.984;5.650;2022-09-24T16:36:21;19.10;99.90
44823;DHT22;51097;51.984;5.650;2022-09-24T16:38:48;19.20;99.90
44823;DHT22;51097;51.984;5.650;2022-09-24T16:41:14;19.10;99.90
44823;DHT22;51097;51.984;5.650;2022-09-24T16:43:40;19.00;99.90
44823;DHT22;51097;51.984;5.650;2022-09-24T16:46:07;19.00;99.90
44823;DHT22;51097;51.984;5.650;2022-09-24T16:48:33;19.00;99.90
44823;DHT22;51097;51.984;5.650;2022-09-24T16:53:28;19.00;99.90
44823;DHT22;51097;51.984;5.650;2022-09-24T16:56:02;19.00;99.90
44823;DHT22;51097;51.984;5.650;2022-09-24T16:58:27;19.00;99.90
44823;DHT22;51097;51.984;5.650;2022-09-24T17:00:53;18.90;99.90
44823;DHT22;51097;51.984;5.650;2022-09-24T17:03:19;18.90;99.90
44823;DHT22;51097;51.984;5.650;2022-09-24T17:05:44;18.80;99.90
44823;DHT22;51097;51.984;5.650;2022-09-24T17:08:10;18.80;99.90
44823;DHT22;51097;51.984;5.650;2022-09-24T17:10:35;18.80;99.90
44823;DHT22;51097;51.984;5.650;2022-09-24T17:13:01;18.70;99.90
44823;DHT22;51097;51.984;5.650;2022-09-24T17:15:27;18.70;99.90
44823;DHT22;51097;51.984;5.650;2022-09-24T17:17:52;18.70;99.90
44823;DHT22;51097;51.984;5.650;2022-09-24T17:20:19;18.60;99.90
44823;DHT22;51097;51.984;5.650;2022-09-24T17:22:45;18.60;99.90
44823;DHT22;51097;51.984;5.650;2022-09-24T17:25:12;18.60;99.90
44823;DHT22;51097;51.984;5.650;2022-09-24T17:27:38;18.60;99.90
44823;DHT22;51097;51.984;5.650;2022-09-24T17:30:05;18.60;99.90
44823;DHT22;51097;51.984;5.650;2022-09-24T17:32:31;18.50;99.90
44823;DHT22;51097;51.984;5.650;2022-09-24T17:34:57;18.50;99.90
44823;DHT22;51097;51.984;5.650;2022-09-24T17:37:23;18.40;99.90
44823;DHT22;51097;51.984;5.650;2022-09-24T17:39:49;18.40;99.90
44823;DHT22;51097;51.984;5.650;2022-09-24T17:42:14;18.40;99.90
44823;DHT22;51097;51.984;5.650;2022-09-24T17:44:40;18.30;99.90
44823;DHT22;51097;51.984;5.650;2022-09-24T17:47:06;18.20;99.90
44823;DHT22;51097;51.984;5.650;2022-09-24T17:49:32;18.30;99.90
44823;DHT22;51097;51.984;5.650;2022-09-24T17:51:58;18.20;99.90
44823;DHT22;51097;51.984;5.650;2022-09-24T17:54:27;18.20;99.90
44823;DHT22;51097;51.984;5.650;2022-09-24T17:56:53;18.10;99.90
44823;DHT22;51097;51.984;5.650;2022-09-24T17:59:19;18.10;99.90